Time;durP1;ratioP1;P1;durP2;ratioP2;P2;SDS_P1;SDS_P2;PMS_P1;PMS_P2;Temp;Humidity;BMP_temperature;BMP_pressure;BME280_temperature;BME280_humidity;BME280_pressure;Samples;Min_cycle;Max_cycle;Signal;HPM_P1;HPM_P2
2024/03/12 00:01:12;;;;;;;95.65;54.13;;;;;;;6.25;100.00;100838.13;5045028;28;20022;-73
2024/03/12 00:03:46;;;;;;;90.57;54.25;;;;;;;6.25;100.00;100840.75;5042446;28;20091;-71
2024/03/12 00:06:12;;;;;;;93.35;52.78;;;;;;;6.27;100.00;100841.66;5045004;28;20379;-74
2024/03/12 00:08:39;;;;;;;92.10;51.75;;;;;;;6.24;100.00;100843.34;5043307;28;20438;-68
2024/03/12 00:11:05;;;;;;;98.60;54.63;;;;;;;6.26;100.00;100852.13;5043861;28;20026;-69
2024/03/12 00:13:30;;;;;;;95.28;53.90;;;;;;;6.23;100.00;100854.69;5045510;28;20045;-68
2024/03/12 00:15:56;;;;;;;94.03;54.45;;;;;;;6.26;100.00;100855.66;5045038;28;20027;-68
2024/03/12 00:18:25;;;;;;;97.00;54.15;;;;;;;6.21;100.00;100862.53;5042082;28;20468;-68
2024/03/12 00:20:52;;;;;;;103.18;55.33;;;;;;;6.22;100.00;100864.31;5045212;28;20518;-68
2024/03/12 00:23:18;;;;;;;96.40;56.53;;;;;;;6.24;100.00;100870.47;5042127;28;20069;-71
2024/03/12 00:25:43;;;;;;;104.85;56.42;;;;;;;6.22;100.00;100872.19;5044743;28;20422;-68
2024/03/12 00:28:09;;;;;;;103.10;56.45;;;;;;;6.21;100.00;100875.66;5042941;28;20076;-70
2024/03/12 00:30:34;;;;;;;104.78;55.60;;;;;;;6.22;100.00;100880.09;5043720;28;20021;-67
2024/03/12 00:33:00;;;;;;;101.57;55.05;;;;;;;6.25;100.00;100872.28;5044182;28;20952;-77
2024/03/12 00:35:35;;;;;;;107.22;55.67;;;;;;;6.24;100.00;100880.13;5042536;28;20029;-69
2024/03/12 00:38:03;;;;;;;112.05;55.63;;;;;;;6.24;100.00;100883.63;5044077;28;20041;-76
2024/03/12 00:40:33;;;;;;;98.72;53.33;;;;;;;6.29;100.00;100883.72;5042677;28;20435;-76
2024/03/12 00:42:59;;;;;;;99.90;54.70;;;;;;;6.25;100.00;100881.91;5044404;28;20478;-76
2024/03/12 00:45:26;;;;;;;102.90;55.95;;;;;;;6.23;100.00;100883.56;5042299;28;20116;-76
2024/03/12 00:47:56;;;;;;;105.72;55.42;;;;;;;6.24;100.00;100883.63;5045207;28;20159;-75
2024/03/12 00:50:22;;;;;;;114.40;56.25;;;;;;;6.24;100.00;100883.63;5038392;28;20083;-75
2024/03/12 00:52:52;;;;;;;86.45;50.60;;;;;;;6.25;100.00;100898.53;5045538;28;20033;-76
2024/03/12 00:55:20;;;;;;;87.97;49.15;;;;;;;6.24;100.00;100888.88;5041572;28;20025;-69
2024/03/12 00:57:48;;;;;;;86.03;49.17;;;;;;;6.25;100.00;100898.53;5044542;28;20332;-76
2024/03/12 01:00:17;;;;;;;80.60;47.20;;;;;;;6.26;100.00;100895.06;5041885;28;20033;-76
2024/03/12 01:02:49;;;;;;;89.75;48.95;;;;;;;6.28;100.00;100906.47;5044411;28;20040;-76
2024/03/12 01:05:18;;;;;;;78.97;46.13;;;;;;;6.27;100.00;100896.81;5041814;28;20037;-76
2024/03/12 01:07:45;;;;;;;79.28;47.85;;;;;;;6.24;100.00;100896.75;5044193;28;20395;-75
2024/03/12 01:10:11;;;;;;;78.90;48.03;;;;;;;6.22;100.00;100908.09;5042586;28;21126;-76
2024/03/12 01:12:39;;;;;;;78.03;46.40;;;;;;;6.21;100.00;100915.06;5043244;28;20029;-75
2024/03/12 01:15:08;;;;;;;78.78;47.05;;;;;;;6.24;100.00;100917.75;5042976;28;20084;-76
2024/03/12 01:17:33;;;;;;;81.28;46.60;;;;;;;6.25;100.00;100914.28;5042919;28;20052;-73
2024/03/12 01:19:58;;;;;;;74.93;43.65;;;;;;;6.25;100.00;100919.53;5043309;28;20053;-72
2024/03/12 01:22:24;;;;;;;76.28;44.08;;;;;;;6.27;100.00;100928.31;5041252;28;20017;-70
2024/03/12 01:24:51;;;;;;;73.05;41.92;;;;;;;6.28;100.00;100930.09;5044349;28;20391;-75
2024/03/12 01:27:17;;;;;;;61.67;39.80;;;;;;;6.31;100.00;100931.03;5040767;28;20033;-71
2024/03/12 01:29:43;;;;;;;62.58;40.92;;;;;;;6.25;100.00;100929.16;5043592;28;20025;-67
2024/03/12 01:32:09;;;;;;;71.40;40.75;;;;;;;6.25;100.00;100934.41;5042221;28;20218;-67
2024/03/12 01:34:35;;;;;;;71.65;42.13;;;;;;;6.25;100.00;100931.78;5042399;28;20057;-71
2024/03/12 01:37:00;;;;;;;74.50;43.70;;;;;;;6.17;100.00;100931.56;5043459;28;20384;-68
2024/03/12 01:39:26;;;;;;;69.22;40.92;;;;;;;6.26;100.00;100925.66;5041314;28;20385;-68
2024/03/12 01:41:55;;;;;;;80.07;45.28;;;;;;;6.16;100.00;100937.69;5043004;28;20124;-71
2024/03/12 01:44:21;;;;;;;76.30;43.60;;;;;;;6.20;100.00;100936.91;5036999;28;20031;-72
2024/03/12 01:46:47;;;;;;;77.95;46.30;;;;;;;6.15;100.00;100942.91;5044159;28;20479;-69
2024/03/12 01:49:14;;;;;;;81.53;45.03;;;;;;;6.13;100.00;100941.97;5041985;28;20037;-72
2024/03/12 01:51:41;;;;;;;81.28;44.88;;;;;;;6.14;100.00;100931.50;5047128;28;20033;-70
2024/03/12 01:54:08;;;;;;;77.30;45.75;;;;;;;6.10;100.00;100945.41;5046216;28;20032;-71
2024/03/12 01:56:35;;;;;;;79.28;43.67;;;;;;;6.11;100.00;100941.94;5046168;28;20113;-74
2024/03/12 01:59:01;;;;;;;73.95;46.83;;;;;;;6.11;100.00;100952.44;5046890;28;20028;-68
2024/03/12 02:01:27;;;;;;;76.95;42.80;;;;;;;6.07;100.00;100946.25;5045197;28;20472;-69
2024/03/12 02:03:53;;;;;;;76.75;42.92;;;;;;;6.11;100.00;100953.31;5047828;28;20037;-73
2024/03/12 02:06:19;;;;;;;69.82;39.78;;;;;;;6.18;100.00;100954.34;5044504;28;20113;-69
2024/03/12 02:08:47;;;;;;;72.10;44.65;;;;;;;6.09;100.00;100959.41;5047350;28;20041;-67
2024/03/12 02:11:12;;;;;;;66.72;40.38;;;;;;;6.09;100.00;100959.41;5045062;28;20033;-69
2024/03/12 02:13:38;;;;;;;71.05;41.33;;;;;;;6.11;100.00;100957.69;5046494;28;20030;-68
2024/03/12 02:16:05;;;;;;;68.35;41.17;;;;;;;6.06;100.00;100956.69;5045238;28;20036;-67
2024/03/12 02:18:32;;;;;;;75.60;42.80;;;;;;;6.04;100.00;100958.38;5045179;28;20033;-66
2024/03/12 02:20:58;;;;;;;70.60;43.13;;;;;;;6.00;100.00;100964.41;5046727;28;20500;-68
2024/03/12 02:23:41;;;;;;;75.28;42.65;;;;;;;6.08;100.00;100957.63;5043036;28;20044;-69
2024/03/12 02:26:09;;;;;;;73.03;42.08;;;;;;;6.02;100.00;100962.72;5045789;28;20029;-73
2024/03/12 02:28:37;;;;;;;72.35;41.38;;;;;;;6.05;100.00;100963.66;5044271;28;20029;-71
2024/03/12 02:31:06;;;;;;;75.07;43.17;;;;;;;6.00;100.00;100959.16;5046097;28;20044;-72
2024/03/12 02:33:33;;;;;;;70.70;42.15;;;;;;;6.03;100.00;100967.09;5045765;28;20053;-73
2024/03/12 02:35:58;;;;;;;72.53;43.67;;;;;;;5.97;100.00;100974.78;5046509;28;20028;-68
2024/03/12 02:38:24;;;;;;;84.32;43.13;;;;;;;6.00;100.00;100969.66;5044263;28;20034;-73
2024/03/12 02:40:50;;;;;;;79.72;44.20;;;;;;;5.93;100.00;100977.34;5047790;28;20028;-68
2024/03/12 02:43:16;;;;;;;69.45;41.97;;;;;;;5.98;100.00;100980.09;5044273;28;20108;-76
2024/03/12 02:45:42;;;;;;;69.55;36.80;;;;;;;6.02;100.00;100981.09;5044187;28;20120;-75
2024/03/12 02:48:12;;;;;;;74.88;42.25;;;;;;;6.01;100.00;100982.81;5045902;28;20029;-75
2024/03/12 02:50:38;;;;;;;74.82;41.33;;;;;;;5.95;100.00;100998.38;5045273;28;20112;-74
2024/03/12 02:53:04;;;;;;;74.47;43.15;;;;;;;5.95;100.00;100990.50;5045169;28;20026;-70
2024/03/12 02:55:29;;;;;;;75.78;43.83;;;;;;;5.90;100.00;101006.13;5046768;28;20033;-74
2024/03/12 02:57:54;;;;;;;77.65;42.28;;;;;;;5.85;100.00;101002.47;5043706;28;20114;-75
2024/03/12 03:00:21;;;;;;;87.20;45.75;;;;;;;5.81;100.00;101000.66;5046861;28;20159;-76
2024/03/12 03:02:46;;;;;;;79.25;42.92;;;;;;;5.88;100.00;100996.44;5044060;28;20030;-76
2024/03/12 03:05:13;;;;;;;79.72;46.20;;;;;;;5.87;100.00;101000.81;5046165;28;20036;-76
2024/03/12 03:07:41;;;;;;;66.63;37.00;;;;;;;5.91;100.00;101007.91;5045026;28;20450;-77
2024/03/12 03:10:07;;;;;;;77.53;42.75;;;;;;;5.78;100.00;100995.28;5045797;28;20547;-76
2024/03/12 03:12:33;;;;;;;78.95;40.45;;;;;;;5.80;100.00;100996.25;5045840;28;20057;-76
2024/03/12 03:14:58;;;;;;;74.10;40.28;;;;;;;5.80;100.00;100998.88;5044106;28;20488;-76
2024/03/12 03:17:24;;;;;;;71.40;40.20;;;;;;;5.85;100.00;101001.59;5046687;28;20384;-69
2024/03/12 03:19:49;;;;;;;68.13;38.63;;;;;;;5.84;100.00;100995.47;5043010;28;20463;-67
2024/03/12 03:22:15;;;;;;;67.35;38.80;;;;;;;5.83;100.00;100998.94;5046082;28;20104;-71
2024/03/12 03:24:41;;;;;;;73.40;41.25;;;;;;;5.85;100.00;101002.47;5044278;28;20361;-70
2024/03/12 03:27:10;;;;;;;68.30;38.33;;;;;;;5.88;100.00;101012.19;5044751;28;20083;-67
2024/03/12 03:29:36;;;;;;;67.20;37.30;;;;;;;5.87;100.00;101006.06;5044970;28;20056;-69
2024/03/12 03:32:03;;;;;;;66.13;36.40;;;;;;;5.88;100.00;101009.56;5044467;28;20049;-70
2024/03/12 03:34:29;;;;;;;65.28;34.47;;;;;;;5.90;100.00;101015.75;5045666;28;20033;-74
2024/03/12 03:36:58;;;;;;;63.53;37.42;;;;;;;5.81;100.00;101018.09;5043010;28;20537;-69
2024/03/12 03:39:24;;;;;;;62.08;37.42;;;;;;;5.80;100.00;101011.09;5046470;28;20475;-70
2024/03/12 03:41:54;;;;;;;65.55;38.47;;;;;;;5.78;100.00;101018.03;5042826;28;20052;-67
2024/03/12 03:44:20;;;;;;;66.80;41.50;;;;;;;5.72;100.00;101024.91;5046159;28;20446;-67
2024/03/12 03:46:45;;;;;;;65.25;37.53;;;;;;;5.72;100.00;101018.75;5043198;28;20061;-67
2024/03/12 03:49:11;;;;;;;64.57;37.53;;;;;;;5.74;100.00;101030.19;5045095;28;20037;-70
2024/03/12 03:51:36;;;;;;;61.10;36.00;;;;;;;5.76;100.00;101028.47;5044642;28;20475;-69
2024/03/12 03:54:02;;;;;;;60.08;36.15;;;;;;;5.72;100.00;101032.78;5043776;28;20030;-69
2024/03/12 03:56:28;;;;;;;59.15;36.03;;;;;;;5.71;100.00;101030.13;5045393;28;20021;-67
2024/03/12 03:58:58;;;;;;;57.17;35.75;;;;;;;5.73;100.00;101029.28;5042561;28;20048;-70
2024/03/12 04:01:24;;;;;;;52.75;32.55;;;;;;;5.81;100.00;101025.97;5045972;28;20115;-71
2024/03/12 04:03:52;;;;;;;55.10;33.63;;;;;;;5.76;100.00;101039.84;5036973;28;20037;-71
2024/03/12 04:06:21;;;;;;;53.30;32.85;;;;;;;5.82;100.00;101049.63;5045573;28;20025;-69
2024/03/12 04:08:50;;;;;;;53.97;34.15;;;;;;;5.70;100.00;101050.19;5042666;28;20091;-74
2024/03/12 04:11:22;;;;;;;50.88;31.55;;;;;;;5.75;100.00;101048.59;5044938;28;20029;-70
2024/03/12 04:13:48;;;;;;;;;;;;;;;5.81;100.00;101052.22;5045642;28;20079;-73
2024/03/12 04:16:13;;;;;;;55.38;33.83;;;;;;;5.68;100.00;101051.91;5043046;28;20386;-67
2024/03/12 04:18:38;;;;;;;53.25;33.88;;;;;;;5.66;100.00;101053.56;5044113;28;20472;-70
2024/03/12 04:21:05;;;;;;;54.58;32.92;;;;;;;5.63;100.00;101058.72;5043757;28;20532;-69
2024/03/12 04:23:31;;;;;;;56.50;33.90;;;;;;;5.68;100.00;101058.84;5043023;28;20502;-70
2024/03/12 04:25:56;;;;;;;53.97;33.00;;;;;;;5.71;100.00;101059.84;5045324;28;20024;-69
2024/03/12 04:28:22;;;;;;;57.88;33.03;;;;;;;5.71;100.00;101070.34;5041749;28;20033;-75
2024/03/12 04:30:51;;;;;;;52.03;33.03;;;;;;;5.68;100.00;101079.84;5045204;28;20025;-73
2024/03/12 04:33:17;;;;;;;52.90;32.00;;;;;;;5.67;100.00;101080.72;5042046;28;20032;-72
2024/03/12 04:35:44;;;;;;;53.42;32.10;;;;;;;5.68;100.00;101074.59;5044115;28;20029;-70
2024/03/12 04:38:09;;;;;;;53.42;33.20;;;;;;;5.68;100.00;101082.47;5043131;28;20021;-69
2024/03/12 04:40:34;;;;;;;59.10;33.70;;;;;;;5.65;100.00;101083.28;5041743;28;20040;-72
2024/03/12 04:43:02;;;;;;;56.13;33.55;;;;;;;5.63;100.00;101084.09;5044564;28;20055;-75
2024/03/12 04:45:28;;;;;;;57.08;34.40;;;;;;;5.61;100.00;101080.50;5042134;28;20033;-72
2024/03/12 04:47:54;;;;;;;60.95;33.85;;;;;;;5.63;100.00;101087.59;5044903;28;20037;-75
2024/03/12 04:50:22;;;;;;;61.35;35.50;;;;;;;5.56;100.00;101085.63;5037315;28;20025;-69
2024/03/12 04:52:50;;;;;;;60.33;33.75;;;;;;;5.57;100.00;101096.16;5044670;28;20035;-73
2024/03/12 04:55:16;;;;;;;57.53;34.28;;;;;;;5.56;100.00;101094.41;5040911;28;20075;-76
2024/03/12 04:57:43;;;;;;;57.20;33.95;;;;;;;5.54;100.00;101106.56;5043647;28;20033;-76
2024/03/12 05:00:18;;;;;;;56.58;33.28;;;;;;;5.53;100.00;101096.94;5043208;28;20107;-75
2024/03/12 05:02:44;;;;;;;56.65;33.10;;;;;;;5.54;100.00;101103.94;5044245;28;20033;-77
2024/03/12 05:05:23;;;;;;;56.60;32.65;;;;;;;5.53;100.00;101103.91;5042423;28;20024;-76
2024/03/12 05:07:49;;;;;;;56.63;33.75;;;;;;;5.50;100.00;101116.94;5044280;28;20342;-68
2024/03/12 05:10:15;;;;;;;59.88;33.22;;;;;;;5.51;100.00;101116.09;5042097;28;20057;-68
2024/03/12 05:12:41;;;;;;;57.05;32.78;;;;;;;5.49;100.00;101121.28;5042102;28;20021;-70
2024/03/12 05:15:09;;;;;;;61.75;35.28;;;;;;;5.47;100.00;101117.72;5042844;28;20025;-70
2024/03/12 05:17:41;;;;;;;57.85;32.20;;;;;;;5.49;100.00;101123.91;5042441;28;20037;-68
2024/03/12 05:20:12;;;;;;;54.83;32.83;;;;;;;5.51;100.00;101129.22;5042472;28;20079;-68
2024/03/12 05:22:38;;;;;;;56.90;32.10;;;;;;;5.52;100.00;101131.88;5042734;28;20041;-68
2024/03/12 05:25:09;;;;;;;57.70;33.30;;;;;;;5.51;100.00;101142.31;5043353;28;20029;-73
2024/03/12 05:27:37;;;;;;;55.58;31.58;;;;;;;5.52;100.00;101145.00;5042247;28;20064;-70
2024/03/12 05:30:10;;;;;;;57.42;32.50;;;;;;;5.52;100.00;101145.00;5043139;28;20033;-73
2024/03/12 05:32:41;;;;;;;53.97;31.55;;;;;;;5.55;100.00;101155.56;5042169;28;20025;-74
2024/03/12 05:35:17;;;;;;;58.15;33.30;;;;;;;5.52;100.00;101158.09;5042840;28;20033;-74
2024/03/12 05:38:01;;;;;;;57.83;32.65;;;;;;;5.54;100.00;101159.03;5043271;28;20037;-74
2024/03/12 05:40:29;;;;;;;57.70;31.15;;;;;;;5.53;100.00;101157.28;5037771;28;20030;-74
2024/03/12 05:48:28;;;;;;;58.17;33.17;;;;;;;5.51;100.00;101169.41;5037723;28;20044;-75
2024/03/12 05:50:55;;;;;;;56.83;31.50;;;;;;;5.52;100.00;101175.53;5042787;28;20116;-75
2024/03/12 05:53:21;;;;;;;53.42;31.40;;;;;;;5.51;100.00;101174.66;5040890;28;20033;-73
2024/03/12 05:55:46;;;;;;;54.20;31.08;;;;;;;5.52;100.00;101184.31;5043391;28;20025;-74
2024/03/12 05:58:12;;;;;;;54.50;31.52;;;;;;;5.52;100.00;101175.53;5041730;28;20032;-74
2024/03/12 06:00:38;;;;;;;51.90;29.48;;;;;;;5.53;100.00;101182.59;5041308;28;20024;-73
2024/03/12 06:03:06;;;;;;;49.85;30.00;;;;;;;5.52;100.00;101192.19;5042874;28;20056;-73
2024/03/12 06:05:32;;;;;;;53.47;30.55;;;;;;;5.53;100.00;101186.13;5041418;28;20033;-71
2024/03/12 06:07:59;;;;;;;55.45;30.77;;;;;;;5.53;100.00;101193.97;5042490;28;20399;-71
2024/03/12 06:10:25;;;;;;;51.28;29.50;;;;;;;5.53;100.00;101201.84;5040261;28;20036;-68
2024/03/12 06:12:51;;;;;;;53.50;30.33;;;;;;;5.54;100.00;101202.72;5036641;28;20037;-69
2024/03/12 06:15:17;;;;;;;49.72;29.63;;;;;;;5.56;100.00;101204.56;5043497;28;20082;-67
2024/03/12 06:17:42;;;;;;;54.40;30.50;;;;;;;5.54;100.00;101205.34;5041569;28;20029;-67
2024/03/12 06:20:10;;;;;;;51.38;30.73;;;;;;;5.54;100.00;101216.72;5041753;28;20522;-69
2024/03/12 06:22:38;;;;;;;52.65;30.75;;;;;;;5.55;100.00;101223.75;5042141;28;20044;-72
2024/03/12 06:25:03;;;;;;;50.80;28.40;;;;;;;5.56;100.00;101219.38;5041157;28;20018;-70
2024/03/12 06:27:29;;;;;;;53.80;29.73;;;;;;;5.54;100.00;101219.34;5043388;28;20029;-70
2024/03/12 06:29:54;;;;;;;53.72;30.83;;;;;;;5.57;100.00;101222.06;5040516;28;20034;-73
2024/03/12 06:32:20;;;;;;;53.17;30.45;;;;;;;5.56;100.00;101225.53;5043461;28;20512;-73
2024/03/12 06:34:47;;;;;;;53.17;30.85;;;;;;;5.56;100.00;101225.53;5040801;28;20037;-69
2024/03/12 06:37:13;;;;;;;52.55;30.00;;;;;;;5.54;100.00;101213.22;5046467;28;20053;-67
2024/03/12 06:39:41;;;;;;;54.13;30.88;;;;;;;5.56;100.00;101224.63;5045429;28;20051;-68
2024/03/12 06:42:07;;;;;;;56.28;30.60;;;;;;;5.56;100.00;101228.16;5045249;28;20388;-67
2024/03/12 06:44:36;;;;;;;55.20;30.58;;;;;;;5.61;100.00;101238.78;5046347;28;20066;-69
2024/03/12 06:47:01;;;;;;;56.78;31.17;;;;;;;5.61;100.00;101238.78;5043185;28;20132;-67
2024/03/12 06:49:27;;;;;;;55.40;32.25;;;;;;;5.61;100.00;101243.13;5046928;28;20452;-71
2024/03/12 06:51:53;;;;;;;55.72;32.38;;;;;;;5.61;100.00;101244.03;5043730;28;20104;-72
2024/03/12 06:54:21;;;;;;;57.30;32.72;;;;;;;5.56;100.00;101245.63;5046905;28;20033;-67
2024/03/12 06:56:47;;;;;;;57.38;35.20;;;;;;;5.56;100.00;101246.53;5044350;28;20033;-67
2024/03/12 06:59:15;;;;;;;55.15;33.78;;;;;;;5.52;100.00;101249.88;5045806;28;20034;-68
2024/03/12 07:01:41;;;;;;;59.20;34.80;;;;;;;5.54;100.00;101257.81;5043945;28;20029;-67
2024/03/12 07:04:10;;;;;;;60.33;33.67;;;;;;;5.56;100.00;101261.34;5044841;28;20428;-67
2024/03/12 07:06:37;;;;;;;56.38;33.28;;;;;;;5.55;100.00;101264.84;5045695;28;20080;-67
2024/03/12 07:09:09;;;;;;;56.55;34.35;;;;;;;5.55;100.00;101254.34;5043914;28;20489;-67
2024/03/12 07:11:40;;;;;;;56.03;32.22;;;;;;;5.58;100.00;101260.56;5045806;28;20033;-68
2024/03/12 07:14:12;;;;;;;56.72;33.22;;;;;;;5.55;100.00;101260.47;5044723;28;20052;-67
2024/03/12 07:16:42;;;;;;;57.25;33.55;;;;;;;5.56;100.00;101264.88;5043942;28;20025;-75
2024/03/12 07:19:10;;;;;;;58.80;34.22;;;;;;;5.58;100.00;101264.94;5044666;28;20040;-75
2024/03/12 07:21:37;;;;;;;59.85;34.60;;;;;;;5.59;100.00;101261.44;5045125;28;20037;-74
2024/03/12 07:24:06;;;;;;;58.80;34.80;;;;;;;5.59;100.00;101270.22;5044263;28;20112;-74
2024/03/12 07:26:32;;;;;;;57.72;35.25;;;;;;;5.63;100.00;101276.44;5045828;28;20035;-76
2024/03/12 07:28:58;;;;;;;57.35;35.38;;;;;;;5.64;100.00;101264.25;5043400;28;20391;-74
2024/03/12 07:31:25;;;;;;;61.67;34.97;;;;;;;5.67;100.00;101269.56;5046542;28;20036;-69
2024/03/12 07:33:51;;;;;;;58.88;34.95;;;;;;;5.67;100.00;101269.56;5046472;28;20025;-72
2024/03/12 07:36:16;;;;;;;59.20;34.97;;;;;;;5.71;100.00;101276.72;5043914;28;20088;-69
2024/03/12 07:38:42;;;;;;;58.15;34.85;;;;;;;5.70;100.00;101274.91;5045184;28;20025;-68
2024/03/12 07:41:08;;;;;;;55.65;34.80;;;;;;;5.65;100.00;101281.72;5044743;28;20033;-68
2024/03/12 07:43:35;;;;;;;55.95;33.20;;;;;;;5.74;100.00;101289.91;5043798;28;20084;-68
2024/03/12 07:46:02;;;;;;;55.72;33.95;;;;;;;5.75;100.00;101289.03;5045563;28;20025;-70
2024/03/12 07:48:28;;;;;;;55.40;32.67;;;;;;;5.76;100.00;101290.84;5041757;28;20072;-73
2024/03/12 07:50:55;;;;;;;54.80;32.67;;;;;;;5.75;100.00;101296.91;5046014;28;20056;-72
2024/03/12 07:53:22;;;;;;;51.55;32.03;;;;;;;5.80;100.00;101302.34;5042795;28;20029;-73
2024/03/12 07:55:52;;;;;;;54.75;32.60;;;;;;;5.85;100.00;101298.97;5045358;28;20476;-74
2024/03/12 07:58:19;;;;;;;53.28;32.30;;;;;;;5.85;100.00;101301.59;5042782;28;20603;-74
2024/03/12 08:00:45;;;;;;;50.65;31.65;;;;;;;5.85;100.00;101304.22;5045260;28;20028;-74
2024/03/12 08:03:13;;;;;;;52.67;32.17;;;;;;;5.84;100.00;101304.19;5043967;28;20442;-71
2024/03/12 08:05:41;;;;;;;49.38;31.00;;;;;;;5.86;100.00;101302.50;5043926;28;20040;-74
2024/03/12 08:08:07;;;;;;;50.90;30.58;;;;;;;5.85;100.00;101301.59;5043232;28;20029;-73
2024/03/12 08:10:33;;;;;;;49.10;30.55;;;;;;;5.87;100.00;101305.19;5043251;28;20036;-69
2024/03/12 08:12:59;;;;;;;50.88;30.67;;;;;;;5.87;100.00;101307.81;5044023;28;20056;-67
2024/03/12 08:15:27;;;;;;;48.88;30.45;;;;;;;5.93;100.00;101312.34;5041182;28;20022;-68
2024/03/12 08:17:54;;;;;;;51.15;31.40;;;;;;;5.97;100.00;101306.41;5038133;28;20029;-68
2024/03/12 08:20:22;;;;;;;50.03;31.33;;;;;;;5.99;100.00;101314.31;5044812;28;20061;-67
2024/03/12 08:22:47;;;;;;;51.20;31.13;;;;;;;6.06;100.00;101311.03;5041591;28;20635;-69
2024/03/12 08:25:13;;;;;;;51.08;30.08;;;;;;;6.10;100.00;101332.19;5044102;28;20116;-72
2024/03/12 08:27:40;;;;;;;49.30;30.45;;;;;;;6.11;100.00;101320.81;5043565;28;20041;-73
2024/03/12 08:30:08;;;;;;;46.42;29.33;;;;;;;6.17;100.00;101327.09;5043301;28;20030;-69
2024/03/12 08:32:35;;;;;;;47.42;29.25;;;;;;;6.16;100.00;101328.84;5044544;28;20404;-73
2024/03/12 08:35:01;;;;;;;44.75;28.73;;;;;;;6.16;100.00;101331.47;5041199;28;20026;-68
2024/03/12 08:37:27;;;;;;;45.33;29.00;;;;;;;6.23;100.00;101324.66;5044242;28;20133;-72
2024/03/12 08:39:53;;;;;;;44.95;27.13;;;;;;;6.30;100.00;101324.00;5037781;28;20026;-73
2024/03/12 08:42:19;;;;;;;43.35;27.83;;;;;;;6.35;100.00;101335.53;5045125;28;20048;-74
2024/03/12 08:44:45;;;;;;;43.03;26.58;;;;;;;6.39;100.00;101333.88;5042728;28;20392;-72
2024/03/12 08:47:11;;;;;;;41.15;26.20;;;;;;;6.38;100.00;101325.13;5043339;28;20029;-71
2024/03/12 08:49:37;;;;;;;40.40;26.13;;;;;;;6.49;100.00;101330.66;5043700;28;20037;-70
2024/03/12 08:52:03;;;;;;;41.50;26.63;;;;;;;6.58;100.00;101332.66;5042429;28;20035;-71
2024/03/12 08:54:29;;;;;;;39.42;25.73;;;;;;;6.57;100.00;101334.41;5044842;28;20057;-71
2024/03/12 08:56:54;;;;;;;39.65;26.23;;;;;;;6.59;100.00;101331.81;5041342;28;20067;-75
2024/03/12 08:59:20;;;;;;;40.60;26.52;;;;;;;6.75;100.00;101336.66;5044521;28;20087;-71
2024/03/12 09:01:46;;;;;;;42.08;27.90;;;;;;;6.89;100.00;101346.69;5042457;28;20044;-74
2024/03/12 09:04:12;;;;;;;41.33;27.00;;;;;;;6.99;100.00;101340.81;5043240;28;20033;-69
2024/03/12 09:06:39;;;;;;;42.00;27.83;;;;;;;7.15;100.00;101336.88;5045026;28;20393;-76
2024/03/12 09:09:05;;;;;;;41.28;27.45;;;;;;;7.29;100.00;101343.34;5040708;28;20503;-75
2024/03/12 09:11:31;;;;;;;41.55;28.02;;;;;;;7.37;100.00;101327.78;5042010;28;20033;-68
2024/03/12 09:13:56;;;;;;;43.00;29.65;;;;;;;7.44;100.00;101339.31;5043310;28;20145;-67
2024/03/12 09:16:21;;;;;;;42.67;30.05;;;;;;;7.55;100.00;101339.63;5040973;28;20018;-68
2024/03/12 09:18:47;;;;;;;41.97;29.58;;;;;;;7.72;100.00;101340.91;5033596;28;20032;-67
2024/03/12 09:21:13;;;;;;;42.47;30.08;;;;;;;7.98;100.00;101338.88;5041532;28;20045;-67
2024/03/12 09:23:45;;;;;;;43.85;30.35;;;;;;;8.12;100.00;101340.94;5041014;28;20120;-68
2024/03/12 09:26:10;;;;;;;43.17;29.85;;;;;;;8.24;100.00;101335.03;5040458;28;20025;-68
2024/03/12 09:28:36;;;;;;;42.47;29.90;;;;;;;8.40;100.00;101336.25;5042898;28;20048;-68
2024/03/12 09:31:04;;;;;;;42.15;29.48;;;;;;;8.58;100.00;101328.78;5041024;28;20075;-67
2024/03/12 09:33:30;;;;;;;41.90;28.83;;;;;;;8.94;100.00;101329.47;5043844;28;20040;-76
2024/03/12 09:35:55;;;;;;;40.08;29.17;;;;;;;8.97;100.00;101325.16;5041361;28;20056;-77
2024/03/12 09:38:21;;;;;;;39.08;27.00;;;;;;;9.09;100.00;101324.47;5043325;28;20440;-73
2024/03/12 09:40:50;;;;;;;39.42;27.83;;;;;;;9.27;100.00;101328.31;5042863;28;20021;-71
2024/03/12 09:43:18;;;;;;;38.95;28.13;;;;;;;9.43;100.00;101328.56;5042456;28;20511;-76
2024/03/12 09:45:45;;;;;;;38.88;28.73;;;;;;;9.33;100.00;101329.28;5043146;28;20032;-75
2024/03/12 09:48:14;;;;;;;37.22;27.70;;;;;;;9.37;100.00;101335.50;5042074;28;20029;-74
2024/03/12 09:50:42;;;;;;;38.95;28.48;;;;;;;9.63;100.00;101332.44;5043786;28;20403;-74
2024/03/12 09:53:13;;;;;;;39.28;28.48;;;;;;;9.73;100.00;101329.06;5041429;28;20086;-75
2024/03/12 09:55:39;;;;;;;38.20;28.48;;;;;;;9.59;100.00;101327.06;5040515;28;20052;-74
2024/03/12 09:58:07;;;;;;;38.25;28.35;;;;;;;9.38;100.00;101327.63;5044493;28;20451;-76
2024/03/12 10:00:33;;;;;;;37.72;28.00;;;;;;;9.02;100.00;101323.47;5041123;28;20372;-75
2024/03/12 10:03:00;;;;;;;39.10;27.63;;;;;;;8.94;100.00;101319.81;5040649;28;20022;-76
2024/03/12 10:05:25;;;;;;;39.80;30.00;;;;;;;8.96;100.00;101327.75;5042422;28;20032;-78
2024/03/12 10:08:07;;;;;;;38.88;28.25;;;;;;;8.97;100.00;101322.50;5041462;28;20182;-77
2024/03/12 10:10:37;;;;;;;39.10;28.90;;;;;;;8.88;100.00;101328.50;5036845;28;20032;-74
2024/03/12 10:13:04;;;;;;;40.35;29.00;;;;;;;8.81;100.00;101323.06;5045598;28;20036;-73
2024/03/12 10:15:29;;;;;;;37.95;28.67;;;;;;;8.70;100.00;101334.28;5046619;28;20471;-68
2024/03/12 10:18:01;;;;;;;39.20;28.17;;;;;;;8.58;100.00;101331.41;5044830;28;20072;-68
2024/03/12 10:20:27;;;;;;;39.63;29.30;;;;;;;8.50;100.00;101323.38;5047074;28;20179;-70
2024/03/12 10:23:09;;;;;;;40.05;28.77;;;;;;;8.53;100.00;101328.69;5043955;28;20748;-69
2024/03/12 10:25:37;;;;;;;40.10;27.63;;;;;;;8.61;100.00;101325.31;5040926;28;20503;-69
2024/03/12 10:28:05;;;;;;;39.58;28.42;;;;;;;8.65;100.00;101330.69;5047851;28;20040;-74
2024/03/12 10:30:31;;;;;;;40.55;28.70;;;;;;;8.80;100.00;101326.56;5044413;28;20036;-74
2024/03/12 10:32:56;;;;;;;39.63;28.98;;;;;;;8.88;100.00;101330.22;5047556;28;20025;-72
2024/03/12 10:35:22;;;;;;;39.63;27.75;;;;;;;8.96;100.00;101327.75;5043953;28;20033;-75
2024/03/12 10:37:51;;;;;;;36.92;27.10;;;;;;;8.82;100.00;101330.13;5044779;28;20041;-70
2024/03/12 10:40:19;;;;;;;39.83;28.13;;;;;;;8.70;100.00;101336.91;5046029;28;20025;-79
2024/03/12 10:42:55;;;;;;;38.63;27.33;;;;;;;8.51;100.00;101332.16;5045778;28;20040;-76
2024/03/12 10:45:21;;;;;;;39.00;27.48;;;;;;;8.39;100.00;101335.38;5045381;28;20135;-78
2024/03/12 10:47:48;;;;;;;40.80;30.52;;;;;;;8.34;100.00;101331.75;5045965;28;20061;-77
2024/03/12 10:50:16;;;;;;;40.20;29.58;;;;;;;8.37;100.00;101350.25;5046487;28;20029;-78
2024/03/12 10:52:45;;;;;;;40.38;29.55;;;;;;;8.32;100.00;101344.88;5043695;28;20377;-77
2024/03/12 10:55:21;;;;;;;39.95;28.05;;;;;;;8.30;100.00;101348.34;5046588;28;20500;-78
2024/03/12 10:57:49;;;;;;;39.17;26.77;;;;;;;8.17;100.00;101347.22;5045858;28;20095;-78
2024/03/12 11:00:20;;;;;;;41.25;28.23;;;;;;;8.01;100.00;101336.31;5045747;28;20044;-78
2024/03/12 11:02:48;;;;;;;41.72;28.05;;;;;;;8.13;100.00;101345.34;5045707;28;20037;-78
2024/03/12 11:05:17;;;;;;;38.78;26.10;;;;;;;8.25;100.00;101331.56;5046336;28;20463;-78
2024/03/12 11:07:44;;;;;;;40.05;26.67;;;;;;;8.49;100.00;101320.66;5044024;28;20029;-76
2024/03/12 11:10:10;;;;;;;38.03;24.70;;;;;;;8.83;100.00;101324.88;5045150;28;20025;-74
2024/03/12 11:12:37;;;;;;;37.33;25.10;;;;;;;9.00;100.00;101330.47;5040516;28;20066;-77
2024/03/12 11:15:02;;;;;;;37.15;24.75;;;;;;;9.08;100.00;101325.31;5045708;28;20464;-76